sensor_id;sensor_type;location;lat;lon;timestamp;P1;durP1;ratioP1;P2;durP2;ratioP2
38853;SDS011;24606;51.992;4.198;2023-12-04T00:02:19;5.57;;;2.15;;
38853;SDS011;24606;51.992;4.198;2023-12-04T00:07:21;3.47;;;2.47;;
38853;SDS011;24606;51.992;4.198;2023-12-04T00:12:24;2.90;;;1.77;;
38853;SDS011;24606;51.992;4.198;2023-12-04T00:17:26;3.80;;;2.67;;
38853;SDS011;24606;51.992;4.198;2023-12-04T00:22:28;2.87;;;1.60;;
38853;SDS011;24606;51.992;4.198;2023-12-04T00:27:32;2.30;;;1.73;;
38853;SDS011;24606;51.992;4.198;2023-12-04T00:32:33;3.47;;;1.90;;
38853;SDS011;24606;51.992;4.198;2023-12-04T00:37:35;5.23;;;2.33;;
38853;SDS011;24606;51.992;4.198;2023-12-04T00:47:41;3.13;;;2.10;;
38853;SDS011;24606;51.992;4.198;2023-12-04T00:52:43;5.97;;;2.47;;
38853;SDS011;24606;51.992;4.198;2023-12-04T00:57:46;4.73;;;2.80;;
38853;SDS011;24606;51.992;4.198;2023-12-04T01:02:48;5.55;;;2.35;;
38853;SDS011;24606;51.992;4.198;2023-12-04T01:07:50;5.50;;;2.63;;
38853;SDS011;24606;51.992;4.198;2023-12-04T01:17:56;7.05;;;4.75;;
38853;SDS011;24606;51.992;4.198;2023-12-04T01:23:00;3.97;;;2.25;;
38853;SDS011;24606;51.992;4.198;2023-12-04T01:28:03;2.83;;;1.93;;
38853;SDS011;24606;51.992;4.198;2023-12-04T01:33:05;3.15;;;2.05;;
38853;SDS011;24606;51.992;4.198;2023-12-04T01:38:08;4.28;;;2.28;;
38853;SDS011;24606;51.992;4.198;2023-12-04T01:43:11;3.15;;;2.03;;
38853;SDS011;24606;51.992;4.198;2023-12-04T01:48:13;3.53;;;2.47;;
38853;SDS011;24606;51.992;4.198;2023-12-04T01:53:15;2.40;;;1.92;;
38853;SDS011;24606;51.992;4.198;2023-12-04T01:58:19;4.40;;;2.25;;
38853;SDS011;24606;51.992;4.198;2023-12-04T02:03:21;3.00;;;2.33;;
38853;SDS011;24606;51.992;4.198;2023-12-04T02:08:24;3.28;;;2.17;;
38853;SDS011;24606;51.992;4.198;2023-12-04T02:13:27;2.33;;;1.88;;
38853;SDS011;24606;51.992;4.198;2023-12-04T02:18:29;2.75;;;1.98;;
38853;SDS011;24606;51.992;4.198;2023-12-04T02:23:32;2.53;;;2.03;;
38853;SDS011;24606;51.992;4.198;2023-12-04T02:28:36;3.13;;;2.03;;
38853;SDS011;24606;51.992;4.198;2023-12-04T02:33:39;2.08;;;1.80;;
38853;SDS011;24606;51.992;4.198;2023-12-04T02:38:42;2.13;;;1.80;;
38853;SDS011;24606;51.992;4.198;2023-12-04T02:43:46;1.92;;;1.33;;
38853;SDS011;24606;51.992;4.198;2023-12-04T02:48:48;2.85;;;1.52;;
38853;SDS011;24606;51.992;4.198;2023-12-04T02:53:50;3.03;;;1.93;;
38853;SDS011;24606;51.992;4.198;2023-12-04T02:58:53;2.40;;;1.73;;
38853;SDS011;24606;51.992;4.198;2023-12-04T03:03:55;2.22;;;1.50;;
38853;SDS011;24606;51.992;4.198;2023-12-04T03:08:58;2.80;;;1.55;;
38853;SDS011;24606;51.992;4.198;2023-12-04T03:14:01;2.53;;;1.90;;
38853;SDS011;24606;51.992;4.198;2023-12-04T03:19:03;3.40;;;1.90;;
38853;SDS011;24606;51.992;4.198;2023-12-04T03:24:05;2.13;;;1.83;;
38853;SDS011;24606;51.992;4.198;2023-12-04T03:29:09;2.43;;;1.77;;
38853;SDS011;24606;51.992;4.198;2023-12-04T03:34:10;2.42;;;1.80;;
38853;SDS011;24606;51.992;4.198;2023-12-04T03:39:12;1.60;;;1.33;;
38853;SDS011;24606;51.992;4.198;2023-12-04T03:44:16;2.63;;;1.60;;
38853;SDS011;24606;51.992;4.198;2023-12-04T03:49:18;3.10;;;1.60;;
38853;SDS011;24606;51.992;4.198;2023-12-04T03:54:20;2.08;;;1.23;;
38853;SDS011;24606;51.992;4.198;2023-12-04T04:15:31;1.90;;;1.45;;
38853;SDS011;24606;51.992;4.198;2023-12-04T04:20:33;2.00;;;1.42;;
38853;SDS011;24606;51.992;4.198;2023-12-04T04:25:35;2.20;;;1.83;;
38853;SDS011;24606;51.992;4.198;2023-12-04T04:30:39;1.48;;;1.20;;
38853;SDS011;24606;51.992;4.198;2023-12-04T04:35:41;1.73;;;1.50;;
38853;SDS011;24606;51.992;4.198;2023-12-04T04:40:43;2.17;;;1.60;;
38853;SDS011;24606;51.992;4.198;2023-12-04T04:45:46;2.33;;;1.40;;
38853;SDS011;24606;51.992;4.198;2023-12-04T04:50:48;1.80;;;1.17;;
38853;SDS011;24606;51.992;4.198;2023-12-04T04:55:49;1.92;;;1.35;;
38853;SDS011;24606;51.992;4.198;2023-12-04T05:00:53;1.77;;;1.20;;
38853;SDS011;24606;51.992;4.198;2023-12-04T05:05:55;1.70;;;1.38;;
38853;SDS011;24606;51.992;4.198;2023-12-04T05:10:57;5.77;;;1.30;;
38853;SDS011;24606;51.992;4.198;2023-12-04T05:16:00;1.90;;;1.40;;
38853;SDS011;24606;51.992;4.198;2023-12-04T05:21:02;1.15;;;0.95;;
38853;SDS011;24606;51.992;4.198;2023-12-04T05:26:04;1.92;;;1.42;;
38853;SDS011;24606;51.992;4.198;2023-12-04T05:41:12;1.48;;;1.02;;
38853;SDS011;24606;51.992;4.198;2023-12-04T05:46:16;1.00;;;0.90;;
38853;SDS011;24606;51.992;4.198;2023-12-04T05:51:17;3.30;;;1.58;;
38853;SDS011;24606;51.992;4.198;2023-12-04T05:56:19;3.70;;;2.80;;
38853;SDS011;24606;51.992;4.198;2023-12-04T06:01:23;1.77;;;1.33;;
38853;SDS011;24606;51.992;4.198;2023-12-04T06:06:26;1.67;;;1.30;;
38853;SDS011;24606;51.992;4.198;2023-12-04T06:11:28;1.90;;;1.33;;
38853;SDS011;24606;51.992;4.198;2023-12-04T06:16:31;1.47;;;0.90;;
38853;SDS011;24606;51.992;4.198;2023-12-04T06:21:34;1.30;;;1.05;;
38853;SDS011;24606;51.992;4.198;2023-12-04T06:26:36;1.27;;;0.80;;
38853;SDS011;24606;51.992;4.198;2023-12-04T06:31:41;1.50;;;1.10;;
38853;SDS011;24606;51.992;4.198;2023-12-04T06:36:44;1.10;;;0.95;;
38853;SDS011;24606;51.992;4.198;2023-12-04T06:41:46;6.05;;;2.78;;
38853;SDS011;24606;51.992;4.198;2023-12-04T06:46:50;1.77;;;1.05;;
38853;SDS011;24606;51.992;4.198;2023-12-04T06:51:53;1.52;;;1.20;;
38853;SDS011;24606;51.992;4.198;2023-12-04T06:56:55;1.90;;;1.27;;
38853;SDS011;24606;51.992;4.198;2023-12-04T07:01:59;2.43;;;1.13;;
38853;SDS011;24606;51.992;4.198;2023-12-04T07:07:01;2.00;;;1.27;;
38853;SDS011;24606;51.992;4.198;2023-12-04T07:12:05;3.72;;;1.55;;
38853;SDS011;24606;51.992;4.198;2023-12-04T07:17:09;2.50;;;1.20;;
38853;SDS011;24606;51.992;4.198;2023-12-04T07:22:11;2.08;;;1.50;;
38853;SDS011;24606;51.992;4.198;2023-12-04T07:27:13;3.23;;;1.93;;
38853;SDS011;24606;51.992;4.198;2023-12-04T07:32:18;2.60;;;1.55;;
38853;SDS011;24606;51.992;4.198;2023-12-04T07:37:20;2.17;;;1.50;;
38853;SDS011;24606;51.992;4.198;2023-12-04T07:42:21;3.40;;;1.88;;
38853;SDS011;24606;51.992;4.198;2023-12-04T07:47:25;2.50;;;1.83;;
38853;SDS011;24606;51.992;4.198;2023-12-04T07:52:27;2.03;;;1.40;;
38853;SDS011;24606;51.992;4.198;2023-12-04T07:57:29;1.77;;;1.37;;
38853;SDS011;24606;51.992;4.198;2023-12-04T08:02:33;1.92;;;1.25;;
38853;SDS011;24606;51.992;4.198;2023-12-04T08:07:34;3.03;;;1.33;;
38853;SDS011;24606;51.992;4.198;2023-12-04T08:12:36;4.97;;;2.93;;
38853;SDS011;24606;51.992;4.198;2023-12-04T08:17:41;1.55;;;1.10;;
38853;SDS011;24606;51.992;4.198;2023-12-04T08:22:43;1.65;;;1.30;;
38853;SDS011;24606;51.992;4.198;2023-12-04T08:27:45;4.57;;;1.83;;
38853;SDS011;24606;51.992;4.198;2023-12-04T08:37:51;2.50;;;1.67;;
38853;SDS011;24606;51.992;4.198;2023-12-04T08:42:53;2.33;;;1.57;;
38853;SDS011;24606;51.992;4.198;2023-12-04T08:47:56;3.37;;;1.93;;
38853;SDS011;24606;51.992;4.198;2023-12-04T08:52:58;2.70;;;1.70;;
38853;SDS011;24606;51.992;4.198;2023-12-04T08:58:00;2.47;;;1.67;;
38853;SDS011;24606;51.992;4.198;2023-12-04T09:03:03;3.43;;;2.50;;
38853;SDS011;24606;51.992;4.198;2023-12-04T09:08:05;2.63;;;1.63;;
38853;SDS011;24606;51.992;4.198;2023-12-04T09:13:07;1.83;;;1.30;;
38853;SDS011;24606;51.992;4.198;2023-12-04T09:18:10;1.70;;;1.13;;
38853;SDS011;24606;51.992;4.198;2023-12-04T09:23:12;2.25;;;1.48;;
38853;SDS011;24606;51.992;4.198;2023-12-04T09:28:14;4.43;;;1.40;;
38853;SDS011;24606;51.992;4.198;2023-12-04T09:33:18;1.90;;;1.30;;
38853;SDS011;24606;51.992;4.198;2023-12-04T09:38:19;3.38;;;1.63;;
38853;SDS011;24606;51.992;4.198;2023-12-04T09:43:21;2.47;;;1.60;;
38853;SDS011;24606;51.992;4.198;2023-12-04T09:48:25;5.33;;;1.50;;
38853;SDS011;24606;51.992;4.198;2023-12-04T09:53:28;2.58;;;1.67;;
38853;SDS011;24606;51.992;4.198;2023-12-04T09:58:33;5.15;;;3.08;;
38853;SDS011;24606;51.992;4.198;2023-12-04T10:03:38;1.98;;;1.58;;
38853;SDS011;24606;51.992;4.198;2023-12-04T10:08:42;1.88;;;1.48;;
38853;SDS011;24606;51.992;4.198;2023-12-04T10:13:45;5.17;;;3.70;;
38853;SDS011;24606;51.992;4.198;2023-12-04T10:18:48;2.10;;;1.50;;
38853;SDS011;24606;51.992;4.198;2023-12-04T10:23:50;1.63;;;1.40;;
38853;SDS011;24606;51.992;4.198;2023-12-04T10:28:58;2.63;;;1.90;;
38853;SDS011;24606;51.992;4.198;2023-12-04T10:34:02;2.22;;;1.83;;
38853;SDS011;24606;51.992;4.198;2023-12-04T10:39:05;2.35;;;1.25;;
38853;SDS011;24606;51.992;4.198;2023-12-04T10:44:08;4.47;;;2.67;;
38853;SDS011;24606;51.992;4.198;2023-12-04T10:49:11;1.63;;;1.20;;
38853;SDS011;24606;51.992;4.198;2023-12-04T10:54:14;3.88;;;1.30;;
38853;SDS011;24606;51.992;4.198;2023-12-04T10:59:17;1.90;;;1.57;;
38853;SDS011;24606;51.992;4.198;2023-12-04T11:04:26;1.20;;;0.98;;
38853;SDS011;24606;51.992;4.198;2023-12-04T11:09:29;4.50;;;2.17;;
38853;SDS011;24606;51.992;4.198;2023-12-04T11:14:37;4.63;;;1.40;;
38853;SDS011;24606;51.992;4.198;2023-12-04T11:19:49;2.72;;;1.80;;
38853;SDS011;24606;51.992;4.198;2023-12-04T11:24:56;3.77;;;1.40;;
38853;SDS011;24606;51.992;4.198;2023-12-04T11:29:58;3.92;;;1.52;;
38853;SDS011;24606;51.992;4.198;2023-12-04T11:35:06;3.22;;;1.52;;
38853;SDS011;24606;51.992;4.198;2023-12-04T11:40:15;2.20;;;1.47;;
38853;SDS011;24606;51.992;4.198;2023-12-04T11:45:20;1.80;;;1.02;;
38853;SDS011;24606;51.992;4.198;2023-12-04T11:50:25;3.55;;;1.40;;
38853;SDS011;24606;51.992;4.198;2023-12-04T11:55:27;3.03;;;1.80;;
38853;SDS011;24606;51.992;4.198;2023-12-04T12:00:29;3.60;;;1.97;;
38853;SDS011;24606;51.992;4.198;2023-12-04T12:05:33;2.55;;;1.40;;
38853;SDS011;24606;51.992;4.198;2023-12-04T12:10:36;1.92;;;1.50;;
38853;SDS011;24606;51.992;4.198;2023-12-04T12:15:38;1.95;;;1.38;;
38853;SDS011;24606;51.992;4.198;2023-12-04T12:20:41;3.42;;;1.98;;
38853;SDS011;24606;51.992;4.198;2023-12-04T12:25:43;2.97;;;1.55;;
38853;SDS011;24606;51.992;4.198;2023-12-04T12:30:45;1.57;;;1.27;;
38853;SDS011;24606;51.992;4.198;2023-12-04T12:35:48;2.90;;;1.83;;
38853;SDS011;24606;51.992;4.198;2023-12-04T12:40:51;2.90;;;1.77;;
38853;SDS011;24606;51.992;4.198;2023-12-04T12:45:53;3.43;;;2.00;;
38853;SDS011;24606;51.992;4.198;2023-12-04T12:50:56;2.60;;;1.57;;
38853;SDS011;24606;51.992;4.198;2023-12-04T12:55:59;3.90;;;2.13;;
38853;SDS011;24606;51.992;4.198;2023-12-04T13:01:01;5.72;;;1.92;;
38853;SDS011;24606;51.992;4.198;2023-12-04T13:06:05;2.75;;;1.58;;
38853;SDS011;24606;51.992;4.198;2023-12-04T13:11:07;4.93;;;2.03;;
38853;SDS011;24606;51.992;4.198;2023-12-04T13:16:10;2.93;;;1.80;;
38853;SDS011;24606;51.992;4.198;2023-12-04T13:21:13;4.55;;;2.08;;
38853;SDS011;24606;51.992;4.198;2023-12-04T13:26:15;2.40;;;1.92;;
38853;SDS011;24606;51.992;4.198;2023-12-04T13:31:17;2.30;;;1.73;;
38853;SDS011;24606;51.992;4.198;2023-12-04T13:36:22;2.17;;;1.35;;
38853;SDS011;24606;51.992;4.198;2023-12-04T13:41:24;4.82;;;1.60;;
38853;SDS011;24606;51.992;4.198;2023-12-04T13:46:43;2.90;;;2.38;;
38853;SDS011;24606;51.992;4.198;2023-12-04T13:51:48;3.38;;;1.98;;
38853;SDS011;24606;51.992;4.198;2023-12-04T13:56:50;4.07;;;2.10;;
38853;SDS011;24606;51.992;4.198;2023-12-04T14:01:56;3.92;;;2.22;;
38853;SDS011;24606;51.992;4.198;2023-12-04T14:07:02;3.20;;;1.80;;
38853;SDS011;24606;51.992;4.198;2023-12-04T14:12:04;2.70;;;1.83;;
38853;SDS011;24606;51.992;4.198;2023-12-04T14:17:06;3.58;;;1.92;;
38853;SDS011;24606;51.992;4.198;2023-12-04T14:22:10;3.42;;;1.95;;
38853;SDS011;24606;51.992;4.198;2023-12-04T14:27:12;5.85;;;2.88;;
38853;SDS011;24606;51.992;4.198;2023-12-04T14:32:14;6.25;;;2.17;;
38853;SDS011;24606;51.992;4.198;2023-12-04T14:37:19;5.95;;;1.48;;
38853;SDS011;24606;51.992;4.198;2023-12-04T14:42:21;6.03;;;1.50;;
38853;SDS011;24606;51.992;4.198;2023-12-04T14:47:23;4.77;;;2.30;;
38853;SDS011;24606;51.992;4.198;2023-12-04T14:52:26;3.50;;;2.03;;
38853;SDS011;24606;51.992;4.198;2023-12-04T14:57:29;1.92;;;1.55;;
38853;SDS011;24606;51.992;4.198;2023-12-04T15:02:55;4.85;;;1.30;;
38853;SDS011;24606;51.992;4.198;2023-12-04T15:08:15;4.22;;;2.20;;
38853;SDS011;24606;51.992;4.198;2023-12-04T15:13:47;2.22;;;1.42;;
38853;SDS011;24606;51.992;4.198;2023-12-04T15:18:56;2.72;;;1.90;;
38853;SDS011;24606;51.992;4.198;2023-12-04T15:24:29;3.00;;;1.63;;
38853;SDS011;24606;51.992;4.198;2023-12-04T15:29:31;5.85;;;1.98;;
38853;SDS011;24606;51.992;4.198;2023-12-04T15:34:34;4.65;;;1.80;;
38853;SDS011;24606;51.992;4.198;2023-12-04T15:39:37;2.23;;;1.40;;
38853;SDS011;24606;51.992;4.198;2023-12-04T15:44:39;3.00;;;1.75;;
38853;SDS011;24606;51.992;4.198;2023-12-04T15:49:42;3.47;;;1.10;;
38853;SDS011;24606;51.992;4.198;2023-12-04T15:54:45;3.37;;;1.67;;
38853;SDS011;24606;51.992;4.198;2023-12-04T15:59:47;3.25;;;1.67;;
38853;SDS011;24606;51.992;4.198;2023-12-04T16:04:49;5.53;;;1.63;;
38853;SDS011;24606;51.992;4.198;2023-12-04T16:09:52;4.00;;;2.00;;
38853;SDS011;24606;51.992;4.198;2023-12-04T16:14:54;4.22;;;1.90;;
38853;SDS011;24606;51.992;4.198;2023-12-04T16:19:56;1.65;;;1.13;;
38853;SDS011;24606;51.992;4.198;2023-12-04T16:25:01;2.10;;;1.10;;
38853;SDS011;24606;51.992;4.198;2023-12-04T16:30:04;3.28;;;1.83;;
38853;SDS011;24606;51.992;4.198;2023-12-04T16:35:06;4.05;;;1.27;;
38853;SDS011;24606;51.992;4.198;2023-12-04T16:40:10;3.60;;;1.10;;
38853;SDS011;24606;51.992;4.198;2023-12-04T16:45:13;10.13;;;1.83;;
38853;SDS011;24606;51.992;4.198;2023-12-04T16:50:15;2.47;;;0.87;;
38853;SDS011;24606;51.992;4.198;2023-12-04T16:55:18;2.90;;;1.37;;
38853;SDS011;24606;51.992;4.198;2023-12-04T17:00:20;2.33;;;1.45;;
38853;SDS011;24606;51.992;4.198;2023-12-04T17:05:23;4.97;;;3.22;;
38853;SDS011;24606;51.992;4.198;2023-12-04T17:10:28;5.88;;;3.50;;
38853;SDS011;24606;51.992;4.198;2023-12-04T17:15:30;6.28;;;2.83;;
38853;SDS011;24606;51.992;4.198;2023-12-04T17:20:32;5.50;;;2.97;;
38853;SDS011;24606;51.992;4.198;2023-12-04T17:25:36;10.03;;;5.07;;
38853;SDS011;24606;51.992;4.198;2023-12-04T17:30:38;6.78;;;3.67;;
38853;SDS011;24606;51.992;4.198;2023-12-04T17:35:40;6.77;;;4.23;;
38853;SDS011;24606;51.992;4.198;2023-12-04T17:40:43;11.43;;;4.70;;
38853;SDS011;24606;51.992;4.198;2023-12-04T17:45:45;8.88;;;4.95;;
38853;SDS011;24606;51.992;4.198;2023-12-04T17:50:47;8.30;;;4.23;;
38853;SDS011;24606;51.992;4.198;2023-12-04T17:55:50;8.47;;;3.27;;
38853;SDS011;24606;51.992;4.198;2023-12-04T18:00:52;6.97;;;3.47;;
38853;SDS011;24606;51.992;4.198;2023-12-04T18:05:54;5.70;;;2.67;;
38853;SDS011;24606;51.992;4.198;2023-12-04T18:10:57;5.57;;;2.95;;
38853;SDS011;24606;51.992;4.198;2023-12-04T18:15:59;6.85;;;2.88;;
38853;SDS011;24606;51.992;4.198;2023-12-04T18:21:02;5.95;;;3.03;;
38853;SDS011;24606;51.992;4.198;2023-12-04T18:26:07;6.95;;;2.72;;
38853;SDS011;24606;51.992;4.198;2023-12-04T18:31:10;6.05;;;3.33;;
38853;SDS011;24606;51.992;4.198;2023-12-04T18:36:14;10.27;;;4.35;;
38853;SDS011;24606;51.992;4.198;2023-12-04T18:41:19;7.50;;;4.30;;
38853;SDS011;24606;51.992;4.198;2023-12-04T18:46:22;12.07;;;3.47;;
38853;SDS011;24606;51.992;4.198;2023-12-04T18:51:28;9.07;;;4.00;;
38853;SDS011;24606;51.992;4.198;2023-12-04T18:56:33;18.85;;;3.85;;
38853;SDS011;24606;51.992;4.198;2023-12-04T19:01:35;6.05;;;3.75;;
38853;SDS011;24606;51.992;4.198;2023-12-04T19:06:37;6.90;;;5.57;;
38853;SDS011;24606;51.992;4.198;2023-12-04T19:11:40;7.00;;;3.83;;
38853;SDS011;24606;51.992;4.198;2023-12-04T19:16:42;7.68;;;4.30;;
38853;SDS011;24606;51.992;4.198;2023-12-04T19:21:43;9.17;;;4.50;;
38853;SDS011;24606;51.992;4.198;2023-12-04T19:26:47;10.73;;;6.27;;
38853;SDS011;24606;51.992;4.198;2023-12-04T19:31:49;8.10;;;4.38;;
38853;SDS011;24606;51.992;4.198;2023-12-04T19:36:52;7.22;;;4.18;;
38853;SDS011;24606;51.992;4.198;2023-12-04T19:41:55;4.17;;;2.63;;
38853;SDS011;24606;51.992;4.198;2023-12-04T19:46:58;6.93;;;3.97;;
38853;SDS011;24606;51.992;4.198;2023-12-04T19:52:01;6.70;;;2.75;;
38853;SDS011;24606;51.992;4.198;2023-12-04T20:02:07;7.43;;;5.25;;
38853;SDS011;24606;51.992;4.198;2023-12-04T20:07:09;4.57;;;2.60;;
38853;SDS011;24606;51.992;4.198;2023-12-04T20:12:12;7.03;;;2.87;;
38853;SDS011;24606;51.992;4.198;2023-12-04T20:17:14;4.05;;;2.67;;
38853;SDS011;24606;51.992;4.198;2023-12-04T20:22:16;7.78;;;2.65;;
38853;SDS011;24606;51.992;4.198;2023-12-04T20:27:20;6.37;;;2.53;;
38853;SDS011;24606;51.992;4.198;2023-12-04T20:32:21;14.02;;;3.25;;
38853;SDS011;24606;51.992;4.198;2023-12-04T20:37:23;18.33;;;3.40;;
38853;SDS011;24606;51.992;4.198;2023-12-04T20:42:27;11.80;;;3.08;;
38853;SDS011;24606;51.992;4.198;2023-12-04T20:47:28;13.20;;;2.80;;
38853;SDS011;24606;51.992;4.198;2023-12-04T20:52:30;13.00;;;3.37;;
38853;SDS011;24606;51.992;4.198;2023-12-04T20:57:34;7.18;;;2.25;;
38853;SDS011;24606;51.992;4.198;2023-12-04T21:02:36;7.60;;;3.05;;
38853;SDS011;24606;51.992;4.198;2023-12-04T21:07:38;16.03;;;3.00;;
38853;SDS011;24606;51.992;4.198;2023-12-04T21:12:41;11.70;;;3.60;;
38853;SDS011;24606;51.992;4.198;2023-12-04T21:17:43;11.13;;;2.55;;
38853;SDS011;24606;51.992;4.198;2023-12-04T21:22:45;8.93;;;2.57;;
38853;SDS011;24606;51.992;4.198;2023-12-04T21:27:48;8.53;;;3.53;;
38853;SDS011;24606;51.992;4.198;2023-12-04T21:32:50;6.90;;;2.60;;
38853;SDS011;24606;51.992;4.198;2023-12-04T21:37:52;8.07;;;1.97;;
38853;SDS011;24606;51.992;4.198;2023-12-04T21:42:56;7.83;;;2.70;;
38853;SDS011;24606;51.992;4.198;2023-12-04T21:47:57;6.93;;;2.42;;
38853;SDS011;24606;51.992;4.198;2023-12-04T21:52:59;4.60;;;2.53;;
38853;SDS011;24606;51.992;4.198;2023-12-04T21:58:03;7.20;;;3.15;;
38853;SDS011;24606;51.992;4.198;2023-12-04T22:03:05;7.53;;;3.55;;
38853;SDS011;24606;51.992;4.198;2023-12-04T22:08:07;7.73;;;2.60;;
38853;SDS011;24606;51.992;4.198;2023-12-04T22:13:10;5.50;;;2.60;;
38853;SDS011;24606;51.992;4.198;2023-12-04T22:18:12;10.52;;;2.78;;
38853;SDS011;24606;51.992;4.198;2023-12-04T22:23:15;5.07;;;2.30;;
38853;SDS011;24606;51.992;4.198;2023-12-04T22:28:19;3.45;;;2.22;;
38853;SDS011;24606;51.992;4.198;2023-12-04T22:33:21;4.70;;;2.38;;
38853;SDS011;24606;51.992;4.198;2023-12-04T22:38:23;4.37;;;2.30;;
38853;SDS011;24606;51.992;4.198;2023-12-04T22:43:26;4.43;;;2.13;;
38853;SDS011;24606;51.992;4.198;2023-12-04T22:48:28;5.05;;;2.33;;
38853;SDS011;24606;51.992;4.198;2023-12-04T22:53:30;3.30;;;2.25;;
38853;SDS011;24606;51.992;4.198;2023-12-04T22:58:33;4.27;;;2.80;;
38853;SDS011;24606;51.992;4.198;2023-12-04T23:03:35;6.93;;;2.70;;
38853;SDS011;24606;51.992;4.198;2023-12-04T23:08:37;6.47;;;3.03;;
38853;SDS011;24606;51.992;4.198;2023-12-04T23:13:43;10.52;;;2.67;;
38853;SDS011;24606;51.992;4.198;2023-12-04T23:18:45;7.60;;;3.08;;
38853;SDS011;24606;51.992;4.198;2023-12-04T23:23:47;5.17;;;2.50;;
38853;SDS011;24606;51.992;4.198;2023-12-04T23:28:50;7.93;;;2.83;;
38853;SDS011;24606;51.992;4.198;2023-12-04T23:33:52;4.43;;;2.45;;
38853;SDS011;24606;51.992;4.198;2023-12-04T23:38:54;5.15;;;2.33;;
38853;SDS011;24606;51.992;4.198;2023-12-04T23:43:58;2.60;;;1.63;;
38853;SDS011;24606;51.992;4.198;2023-12-04T23:49:01;5.32;;;2.53;;
38853;SDS011;24606;51.992;4.198;2023-12-04T23:54:03;6.40;;;1.90;;
38853;SDS011;24606;51.992;4.198;2023-12-04T23:59:06;4.65;;;2.50;;
